sensor_id;sensor_type;location;lat;lon;timestamp;pressure;altitude;pressure_sealevel;temperature
19061;BMP280;9663;48.996;8.334;2024-03-29T00:00:42;98392.25;;;15.81
19061;BMP280;9663;48.996;8.334;2024-03-29T00:03:09;98383.69;;;15.82
19061;BMP280;9663;48.996;8.334;2024-03-29T00:05:35;98379.56;;;15.80
19061;BMP280;9663;48.996;8.334;2024-03-29T00:08:03;98381.31;;;15.80
19061;BMP280;9663;48.996;8.334;2024-03-29T00:10:29;98379.97;;;15.73
19061;BMP280;9663;48.996;8.334;2024-03-29T00:12:54;98368.41;;;15.66
19061;BMP280;9663;48.996;8.334;2024-03-29T00:15:20;98347.41;;;15.61
19061;BMP280;9663;48.996;8.334;2024-03-29T00:17:46;98355.19;;;15.59
19061;BMP280;9663;48.996;8.334;2024-03-29T00:20:11;98352.69;;;15.58
19061;BMP280;9663;48.996;8.334;2024-03-29T00:22:37;98341.56;;;15.59
19061;BMP280;9663;48.996;8.334;2024-03-29T00:25:03;98327.88;;;15.60
19061;BMP280;9663;48.996;8.334;2024-03-29T00:27:29;98319.22;;;15.62
19061;BMP280;9663;48.996;8.334;2024-03-29T00:29:56;98337.75;;;15.66
19061;BMP280;9663;48.996;8.334;2024-03-29T00:32:22;98324.81;;;15.69
19061;BMP280;9663;48.996;8.334;2024-03-29T00:34:50;98322.84;;;15.74
19061;BMP280;9663;48.996;8.334;2024-03-29T00:37:16;98319.22;;;15.78
19061;BMP280;9663;48.996;8.334;2024-03-29T00:39:42;98318.88;;;15.83
19061;BMP280;9663;48.996;8.334;2024-03-29T00:42:08;98316.16;;;15.86
19061;BMP280;9663;48.996;8.334;2024-03-29T00:44:44;98303.13;;;15.91
19061;BMP280;9663;48.996;8.334;2024-03-29T00:47:10;98293.56;;;15.94
19061;BMP280;9663;48.996;8.334;2024-03-29T00:49:36;98285.72;;;15.97
19061;BMP280;9663;48.996;8.334;2024-03-29T00:52:03;98279.44;;;16.03
19061;BMP280;9663;48.996;8.334;2024-03-29T00:54:30;98268.16;;;16.07
19061;BMP280;9663;48.996;8.334;2024-03-29T00:56:56;98285.75;;;16.11
19061;BMP280;9663;48.996;8.334;2024-03-29T00:59:22;98299.94;;;16.17
19061;BMP280;9663;48.996;8.334;2024-03-29T01:01:49;98301.38;;;16.22
19061;BMP280;9663;48.996;8.334;2024-03-29T01:04:15;98298.56;;;16.26
19061;BMP280;9663;48.996;8.334;2024-03-29T01:06:40;98300.81;;;16.31
19061;BMP280;9663;48.996;8.334;2024-03-29T01:09:06;98305.59;;;16.37
19061;BMP280;9663;48.996;8.334;2024-03-29T01:11:32;98297.69;;;16.41
19061;BMP280;9663;48.996;8.334;2024-03-29T01:13:58;98282.03;;;16.46
19061;BMP280;9663;48.996;8.334;2024-03-29T01:16:24;98265.63;;;16.50
19061;BMP280;9663;48.996;8.334;2024-03-29T01:18:50;98254.47;;;16.51
19061;BMP280;9663;48.996;8.334;2024-03-29T01:21:17;98252.84;;;16.50
19061;BMP280;9663;48.996;8.334;2024-03-29T01:23:44;98241.03;;;16.47
19061;BMP280;9663;48.996;8.334;2024-03-29T01:26:10;98236.84;;;16.46
19061;BMP280;9663;48.996;8.334;2024-03-29T01:28:38;98236.84;;;16.46
19061;BMP280;9663;48.996;8.334;2024-03-29T01:31:05;98240.22;;;16.47
19061;BMP280;9663;48.996;8.334;2024-03-29T01:33:31;98246.06;;;16.49
19061;BMP280;9663;48.996;8.334;2024-03-29T01:36:04;98255.38;;;16.50
19061;BMP280;9663;48.996;8.334;2024-03-29T01:38:30;98259.50;;;16.52
19061;BMP280;9663;48.996;8.334;2024-03-29T01:40:56;98244.13;;;16.52
19061;BMP280;9663;48.996;8.334;2024-03-29T01:43:21;98247.34;;;16.56
19061;BMP280;9663;48.996;8.334;2024-03-29T01:45:49;98251.47;;;16.58
19061;BMP280;9663;48.996;8.334;2024-03-29T01:48:17;98239.31;;;16.62
19061;BMP280;9663;48.996;8.334;2024-03-29T01:50:43;98262.25;;;16.63
19061;BMP280;9663;48.996;8.334;2024-03-29T01:53:10;98238.19;;;16.66
19061;BMP280;9663;48.996;8.334;2024-03-29T01:55:36;98261.91;;;16.69
19061;BMP280;9663;48.996;8.334;2024-03-29T01:58:03;98263.44;;;16.71
19061;BMP280;9663;48.996;8.334;2024-03-29T02:00:30;98263.19;;;16.76
19061;BMP280;9663;48.996;8.334;2024-03-29T02:02:57;98253.47;;;16.81
19061;BMP280;9663;48.996;8.334;2024-03-29T02:05:24;98252.28;;;16.86
19061;BMP280;9663;48.996;8.334;2024-03-29T02:07:50;98240.03;;;16.91
19061;BMP280;9663;48.996;8.334;2024-03-29T02:10:16;98250.00;;;16.96
19061;BMP280;9663;48.996;8.334;2024-03-29T02:12:42;98249.72;;;17.00
19061;BMP280;9663;48.996;8.334;2024-03-29T02:15:08;98249.53;;;17.03
19061;BMP280;9663;48.996;8.334;2024-03-29T02:17:34;98241.66;;;17.06
19061;BMP280;9663;48.996;8.334;2024-03-29T02:19:59;98253.38;;;17.10
19061;BMP280;9663;48.996;8.334;2024-03-29T02:22:27;98250.50;;;17.14
19061;BMP280;9663;48.996;8.334;2024-03-29T02:24:55;98236.91;;;17.14
19061;BMP280;9663;48.996;8.334;2024-03-29T02:27:21;98241.69;;;17.20
19061;BMP280;9663;48.996;8.334;2024-03-29T02:29:48;98243.94;;;17.24
19061;BMP280;9663;48.996;8.334;2024-03-29T02:32:14;98248.06;;;17.27
19061;BMP280;9663;48.996;8.334;2024-03-29T02:34:39;98260.59;;;17.31
19061;BMP280;9663;48.996;8.334;2024-03-29T02:37:05;98254.47;;;17.34
19061;BMP280;9663;48.996;8.334;2024-03-29T02:39:31;98253.34;;;17.38
19061;BMP280;9663;48.996;8.334;2024-03-29T02:41:57;98252.34;;;17.40
19061;BMP280;9663;48.996;8.334;2024-03-29T02:44:23;98253.06;;;17.42
19061;BMP280;9663;48.996;8.334;2024-03-29T02:46:48;98255.44;;;17.45
19061;BMP280;9663;48.996;8.334;2024-03-29T02:49:14;98260.38;;;17.48
19061;BMP280;9663;48.996;8.334;2024-03-29T02:51:40;98255.97;;;17.50
19061;BMP280;9663;48.996;8.334;2024-03-29T02:54:05;98260.91;;;17.53
19061;BMP280;9663;48.996;8.334;2024-03-29T02:56:31;98274.53;;;17.53
19061;BMP280;9663;48.996;8.334;2024-03-29T02:58:57;98273.81;;;17.52
19061;BMP280;9663;48.996;8.334;2024-03-29T03:01:22;98293.59;;;17.50
19061;BMP280;9663;48.996;8.334;2024-03-29T03:03:48;98313.56;;;17.45
19061;BMP280;9663;48.996;8.334;2024-03-29T03:06:13;98321.25;;;17.31
19061;BMP280;9663;48.996;8.334;2024-03-29T03:08:39;98318.53;;;17.20
19061;BMP280;9663;48.996;8.334;2024-03-29T03:11:23;98300.28;;;17.10
19061;BMP280;9663;48.996;8.334;2024-03-29T03:13:49;98285.19;;;17.06
19061;BMP280;9663;48.996;8.334;2024-03-29T03:16:14;98285.28;;;17.05
19061;BMP280;9663;48.996;8.334;2024-03-29T03:18:40;98287.94;;;17.03
19061;BMP280;9663;48.996;8.334;2024-03-29T03:21:06;98300.00;;;17.01
19061;BMP280;9663;48.996;8.334;2024-03-29T03:23:31;98300.19;;;16.98
19061;BMP280;9663;48.996;8.334;2024-03-29T03:26:02;98303.84;;;16.94
19061;BMP280;9663;48.996;8.334;2024-03-29T03:28:32;98282.56;;;16.94
19061;BMP280;9663;48.996;8.334;2024-03-29T03:30:57;98281.63;;;16.95
19061;BMP280;9663;48.996;8.334;2024-03-29T03:33:23;98276.31;;;16.98
19061;BMP280;9663;48.996;8.334;2024-03-29T03:35:49;98278.72;;;17.01
19061;BMP280;9663;48.996;8.334;2024-03-29T03:38:16;98266.63;;;17.03
19061;BMP280;9663;48.996;8.334;2024-03-29T03:40:42;98259.75;;;17.03
19061;BMP280;9663;48.996;8.334;2024-03-29T03:43:09;98254.66;;;17.03
19061;BMP280;9663;48.996;8.334;2024-03-29T03:45:39;98240.03;;;17.05
19061;BMP280;9663;48.996;8.334;2024-03-29T03:48:07;98235.81;;;17.04
19061;BMP280;9663;48.996;8.334;2024-03-29T03:50:34;98244.31;;;17.05
19061;BMP280;9663;48.996;8.334;2024-03-29T03:53:00;98240.66;;;17.09
19061;BMP280;9663;48.996;8.334;2024-03-29T03:55:26;98236.28;;;17.10
19061;BMP280;9663;48.996;8.334;2024-03-29T03:57:53;98245.31;;;17.16
19061;BMP280;9663;48.996;8.334;2024-03-29T04:00:20;98256.97;;;17.21
19061;BMP280;9663;48.996;8.334;2024-03-29T04:02:50;98257.38;;;17.28
19061;BMP280;9663;48.996;8.334;2024-03-29T04:05:18;98240.13;;;17.31
19061;BMP280;9663;48.996;8.334;2024-03-29T04:07:43;98222.91;;;17.33
19061;BMP280;9663;48.996;8.334;2024-03-29T04:10:11;98235.72;;;17.33
19061;BMP280;9663;48.996;8.334;2024-03-29T04:12:37;98247.88;;;17.30
19061;BMP280;9663;48.996;8.334;2024-03-29T04:15:04;98242.41;;;17.22
19061;BMP280;9663;48.996;8.334;2024-03-29T04:17:31;98241.69;;;17.20
19061;BMP280;9663;48.996;8.334;2024-03-29T04:19:58;98263.94;;;17.18
19061;BMP280;9663;48.996;8.334;2024-03-29T04:22:24;98274.78;;;17.09
19061;BMP280;9663;48.996;8.334;2024-03-29T04:24:51;98263.09;;;17.05
19061;BMP280;9663;48.996;8.334;2024-03-29T04:27:18;98276.78;;;17.04
19061;BMP280;9663;48.996;8.334;2024-03-29T04:29:43;98270.31;;;16.99
19061;BMP280;9663;48.996;8.334;2024-03-29T04:32:09;98258.59;;;16.81
19061;BMP280;9663;48.996;8.334;2024-03-29T04:34:35;98252.66;;;16.67
19061;BMP280;9663;48.996;8.334;2024-03-29T04:37:01;98239.56;;;16.57
19061;BMP280;9663;48.996;8.334;2024-03-29T04:39:28;98240.03;;;16.50
19061;BMP280;9663;48.996;8.334;2024-03-29T04:41:54;98233.63;;;16.43
19061;BMP280;9663;48.996;8.334;2024-03-29T04:44:25;98238.00;;;16.41
19061;BMP280;9663;48.996;8.334;2024-03-29T04:46:51;98222.84;;;16.38
19061;BMP280;9663;48.996;8.334;2024-03-29T04:49:23;98231.59;;;16.34
19061;BMP280;9663;48.996;8.334;2024-03-29T04:51:59;98228.97;;;16.35
19061;BMP280;9663;48.996;8.334;2024-03-29T04:54:26;98227.78;;;16.41
19061;BMP280;9663;48.996;8.334;2024-03-29T04:56:55;98205.22;;;16.47
19061;BMP280;9663;48.996;8.334;2024-03-29T04:59:20;98210.16;;;16.50
19061;BMP280;9663;48.996;8.334;2024-03-29T05:01:49;98212.44;;;16.55
19061;BMP280;9663;48.996;8.334;2024-03-29T05:04:19;98220.94;;;16.55
19061;BMP280;9663;48.996;8.334;2024-03-29T05:07:00;98222.59;;;16.56
19061;BMP280;9663;48.996;8.334;2024-03-29T05:09:26;98220.75;;;16.58
19061;BMP280;9663;48.996;8.334;2024-03-29T05:11:52;98241.31;;;16.57
19061;BMP280;9663;48.996;8.334;2024-03-29T05:14:20;98240.03;;;16.50
19061;BMP280;9663;48.996;8.334;2024-03-29T05:16:48;98240.84;;;16.36
19061;BMP280;9663;48.996;8.334;2024-03-29T05:19:15;98255.91;;;16.27
19061;BMP280;9663;48.996;8.334;2024-03-29T05:21:42;98241.88;;;16.19
19061;BMP280;9663;48.996;8.334;2024-03-29T05:24:08;98247.31;;;16.13
19061;BMP280;9663;48.996;8.334;2024-03-29T05:26:35;98249.31;;;16.08
19061;BMP280;9663;48.996;8.334;2024-03-29T05:29:00;98255.25;;;16.08
19061;BMP280;9663;48.996;8.334;2024-03-29T05:31:30;98259.53;;;16.08
19061;BMP280;9663;48.996;8.334;2024-03-29T05:33:56;98255.38;;;16.07
19061;BMP280;9663;48.996;8.334;2024-03-29T05:36:21;98276.88;;;16.03
19061;BMP280;9663;48.996;8.334;2024-03-29T05:38:47;98277.22;;;15.97
19061;BMP280;9663;48.996;8.334;2024-03-29T05:41:13;98282.59;;;15.92
19061;BMP280;9663;48.996;8.334;2024-03-29T05:43:39;98276.84;;;15.89
19061;BMP280;9663;48.996;8.334;2024-03-29T05:46:07;98267.50;;;15.88
19061;BMP280;9663;48.996;8.334;2024-03-29T05:48:33;98280.38;;;15.86
19061;BMP280;9663;48.996;8.334;2024-03-29T05:50:59;98289.72;;;15.87
19061;BMP280;9663;48.996;8.334;2024-03-29T05:53:25;98304.31;;;15.85
19061;BMP280;9663;48.996;8.334;2024-03-29T05:55:51;98305.19;;;15.84
19061;BMP280;9663;48.996;8.334;2024-03-29T05:58:18;98290.97;;;15.81
19061;BMP280;9663;48.996;8.334;2024-03-29T06:00:45;98292.84;;;15.77
19061;BMP280;9663;48.996;8.334;2024-03-29T06:03:11;98305.53;;;15.79
19061;BMP280;9663;48.996;8.334;2024-03-29T06:05:38;98315.50;;;15.83
19061;BMP280;9663;48.996;8.334;2024-03-29T06:08:05;98315.50;;;15.83
19061;BMP280;9663;48.996;8.334;2024-03-29T06:10:31;98329.03;;;15.85
19061;BMP280;9663;48.996;8.334;2024-03-29T06:12:57;98324.75;;;15.85
19061;BMP280;9663;48.996;8.334;2024-03-29T06:15:32;98314.34;;;15.88
19061;BMP280;9663;48.996;8.334;2024-03-29T06:18:16;98301.16;;;15.96
19061;BMP280;9663;48.996;8.334;2024-03-29T06:20:46;98308.94;;;16.08
19061;BMP280;9663;48.996;8.334;2024-03-29T06:23:12;98295.66;;;16.17
19061;BMP280;9663;48.996;8.334;2024-03-29T06:25:39;98300.09;;;16.29
19061;BMP280;9663;48.996;8.334;2024-03-29T06:28:05;98316.66;;;16.37
19061;BMP280;9663;48.996;8.334;2024-03-29T06:30:31;98307.81;;;16.43
19061;BMP280;9663;48.996;8.334;2024-03-29T06:32:58;98319.50;;;16.47
19061;BMP280;9663;48.996;8.334;2024-03-29T06:35:26;98356.06;;;16.49
19061;BMP280;9663;48.996;8.334;2024-03-29T06:37:51;98357.72;;;16.50
19061;BMP280;9663;48.996;8.334;2024-03-29T06:40:17;98379.91;;;16.49
19061;BMP280;9663;48.996;8.334;2024-03-29T06:42:43;98365.56;;;16.47
19061;BMP280;9663;48.996;8.334;2024-03-29T06:45:09;98401.38;;;16.47
19061;BMP280;9663;48.996;8.334;2024-03-29T06:47:36;98373.31;;;16.45
19061;BMP280;9663;48.996;8.334;2024-03-29T06:50:02;98358.22;;;16.41
19061;BMP280;9663;48.996;8.334;2024-03-29T06:52:28;98352.47;;;16.37
19061;BMP280;9663;48.996;8.334;2024-03-29T06:54:54;98358.03;;;16.30
19061;BMP280;9663;48.996;8.334;2024-03-29T06:57:20;98359.00;;;16.27
19061;BMP280;9663;48.996;8.334;2024-03-29T06:59:50;98360.66;;;16.28
19061;BMP280;9663;48.996;8.334;2024-03-29T07:02:16;98348.69;;;16.29
19061;BMP280;9663;48.996;8.334;2024-03-29T07:04:42;98346.31;;;16.26
19061;BMP280;9663;48.996;8.334;2024-03-29T07:07:08;98343.00;;;16.24
19061;BMP280;9663;48.996;8.334;2024-03-29T07:09:33;98340.44;;;16.24
19061;BMP280;9663;48.996;8.334;2024-03-29T07:11:59;98346.47;;;16.23
19061;BMP280;9663;48.996;8.334;2024-03-29T07:14:25;98345.72;;;16.21
19061;BMP280;9663;48.996;8.334;2024-03-29T07:16:52;98343.31;;;16.18
19061;BMP280;9663;48.996;8.334;2024-03-29T07:19:18;98356.81;;;16.22
19061;BMP280;9663;48.996;8.334;2024-03-29T07:21:47;98360.19;;;16.22
19061;BMP280;9663;48.996;8.334;2024-03-29T07:24:13;98365.06;;;16.26
19061;BMP280;9663;48.996;8.334;2024-03-29T07:26:39;98375.00;;;16.31
19061;BMP280;9663;48.996;8.334;2024-03-29T07:29:06;98387.72;;;16.32
19061;BMP280;9663;48.996;8.334;2024-03-29T07:31:33;98385.31;;;16.29
19061;BMP280;9663;48.996;8.334;2024-03-29T07:33:59;98376.81;;;16.29
19061;BMP280;9663;48.996;8.334;2024-03-29T07:36:25;98371.78;;;16.27
19061;BMP280;9663;48.996;8.334;2024-03-29T07:38:54;98386.50;;;16.24
19061;BMP280;9663;48.996;8.334;2024-03-29T07:41:20;98386.69;;;16.20
19061;BMP280;9663;48.996;8.334;2024-03-29T07:43:57;98371.63;;;16.15
19061;BMP280;9663;48.996;8.334;2024-03-29T07:46:33;98381.03;;;16.15
19061;BMP280;9663;48.996;8.334;2024-03-29T07:48:59;98387.88;;;16.14
19061;BMP280;9663;48.996;8.334;2024-03-29T07:51:25;98389.69;;;16.12
19061;BMP280;9663;48.996;8.334;2024-03-29T07:53:51;98372.63;;;16.13
19061;BMP280;9663;48.996;8.334;2024-03-29T07:56:18;98387.72;;;16.17
19061;BMP280;9663;48.996;8.334;2024-03-29T07:58:44;98396.88;;;16.21
19061;BMP280;9663;48.996;8.334;2024-03-29T08:01:09;98399.47;;;16.20
19061;BMP280;9663;48.996;8.334;2024-03-29T08:03:35;98413.19;;;16.19
19061;BMP280;9663;48.996;8.334;2024-03-29T08:06:03;98420.03;;;16.18
19061;BMP280;9663;48.996;8.334;2024-03-29T08:08:35;98411.63;;;16.16
19061;BMP280;9663;48.996;8.334;2024-03-29T08:11:01;98423.69;;;16.14
19061;BMP280;9663;48.996;8.334;2024-03-29T08:13:27;98410.81;;;16.16
19061;BMP280;9663;48.996;8.334;2024-03-29T08:16:01;98426.97;;;16.16
19061;BMP280;9663;48.996;8.334;2024-03-29T08:18:28;98417.34;;;16.21
19061;BMP280;9663;48.996;8.334;2024-03-29T08:20:54;98422.06;;;16.28
19061;BMP280;9663;48.996;8.334;2024-03-29T08:23:28;98425.81;;;16.37
19061;BMP280;9663;48.996;8.334;2024-03-29T08:25:54;98434.81;;;16.44
19061;BMP280;9663;48.996;8.334;2024-03-29T08:28:24;98433.53;;;16.51
19061;BMP280;9663;48.996;8.334;2024-03-29T08:31:03;98431.56;;;16.56
19061;BMP280;9663;48.996;8.334;2024-03-29T08:33:30;98432.81;;;16.64
19061;BMP280;9663;48.996;8.334;2024-03-29T08:35:57;98431.38;;;16.74
19061;BMP280;9663;48.996;8.334;2024-03-29T08:38:23;98434.94;;;16.85
19061;BMP280;9663;48.996;8.334;2024-03-29T08:40:49;98444.66;;;16.94
19061;BMP280;9663;48.996;8.334;2024-03-29T08:43:16;98447.78;;;16.99
19061;BMP280;9663;48.996;8.334;2024-03-29T08:45:44;98437.38;;;17.02
19061;BMP280;9663;48.996;8.334;2024-03-29T08:48:10;98460.97;;;17.07
19061;BMP280;9663;48.996;8.334;2024-03-29T08:50:37;98449.47;;;17.14
19061;BMP280;9663;48.996;8.334;2024-03-29T08:53:06;98458.47;;;17.21
19061;BMP280;9663;48.996;8.334;2024-03-29T08:55:33;98458.84;;;17.29
19061;BMP280;9663;48.996;8.334;2024-03-29T08:58:00;98465.00;;;17.40
19061;BMP280;9663;48.996;8.334;2024-03-29T09:00:27;98471.84;;;17.53
19061;BMP280;9663;48.996;8.334;2024-03-29T09:02:53;98462.53;;;17.66
19061;BMP280;9663;48.996;8.334;2024-03-29T09:05:20;98463.25;;;17.82
19061;BMP280;9663;48.996;8.334;2024-03-29T09:07:48;98467.16;;;18.01
19061;BMP280;9663;48.996;8.334;2024-03-29T09:10:15;98470.00;;;18.25
19061;BMP280;9663;48.996;8.334;2024-03-29T09:12:41;98481.28;;;18.48
19061;BMP280;9663;48.996;8.334;2024-03-29T09:15:07;98483.50;;;18.67
19061;BMP280;9663;48.996;8.334;2024-03-29T09:17:42;98505.72;;;18.80
19061;BMP280;9663;48.996;8.334;2024-03-29T09:20:08;98510.50;;;18.86
19061;BMP280;9663;48.996;8.334;2024-03-29T09:22:34;98514.50;;;18.90
19061;BMP280;9663;48.996;8.334;2024-03-29T09:25:01;98513.59;;;18.91
19061;BMP280;9663;48.996;8.334;2024-03-29T09:27:27;98522.84;;;18.93
19061;BMP280;9663;48.996;8.334;2024-03-29T09:29:55;98522.84;;;18.93
19061;BMP280;9663;48.996;8.334;2024-03-29T09:32:22;98512.25;;;18.98
19061;BMP280;9663;48.996;8.334;2024-03-29T09:34:48;98512.44;;;19.09
19061;BMP280;9663;48.996;8.334;2024-03-29T09:37:14;98514.28;;;19.19
19061;BMP280;9663;48.996;8.334;2024-03-29T09:39:41;98510.81;;;19.32
19061;BMP280;9663;48.996;8.334;2024-03-29T09:42:09;98513.03;;;19.51
19061;BMP280;9663;48.996;8.334;2024-03-29T09:44:39;98505.09;;;19.66
19061;BMP280;9663;48.996;8.334;2024-03-29T09:47:06;98516.69;;;19.71
19061;BMP280;9663;48.996;8.334;2024-03-29T09:49:34;98529.75;;;19.68
19061;BMP280;9663;48.996;8.334;2024-03-29T09:52:00;98519.06;;;19.62
19061;BMP280;9663;48.996;8.334;2024-03-29T09:54:30;98520.19;;;19.58
19061;BMP280;9663;48.996;8.334;2024-03-29T09:56:57;98520.00;;;19.61
19061;BMP280;9663;48.996;8.334;2024-03-29T09:59:24;98518.66;;;19.68
19061;BMP280;9663;48.996;8.334;2024-03-29T10:01:55;98501.97;;;19.73
19061;BMP280;9663;48.996;8.334;2024-03-29T10:04:23;98498.09;;;19.80
19061;BMP280;9663;48.996;8.334;2024-03-29T10:06:53;98502.44;;;19.92
19061;BMP280;9663;48.996;8.334;2024-03-29T10:09:21;98507.47;;;19.94
19061;BMP280;9663;48.996;8.334;2024-03-29T10:11:48;98505.09;;;19.91
19061;BMP280;9663;48.996;8.334;2024-03-29T10:14:14;98512.22;;;19.87
19061;BMP280;9663;48.996;8.334;2024-03-29T10:16:40;98505.56;;;19.83
19061;BMP280;9663;48.996;8.334;2024-03-29T10:19:07;98490.06;;;19.85
19061;BMP280;9663;48.996;8.334;2024-03-29T10:21:33;98486.19;;;19.92
19061;BMP280;9663;48.996;8.334;2024-03-29T10:24:16;98464.03;;;20.02
19061;BMP280;9663;48.996;8.334;2024-03-29T10:26:46;98461.31;;;20.15
19061;BMP280;9663;48.996;8.334;2024-03-29T10:29:13;98466.66;;;20.25
19061;BMP280;9663;48.996;8.334;2024-03-29T10:31:39;98473.81;;;20.32
19061;BMP280;9663;48.996;8.334;2024-03-29T10:34:08;98475.34;;;20.35
19061;BMP280;9663;48.996;8.334;2024-03-29T10:36:34;98472.69;;;20.36
19061;BMP280;9663;48.996;8.334;2024-03-29T10:39:11;98460.63;;;20.37
19061;BMP280;9663;48.996;8.334;2024-03-29T10:41:41;98442.28;;;20.41
19061;BMP280;9663;48.996;8.334;2024-03-29T10:44:10;98448.75;;;20.47
19061;BMP280;9663;48.996;8.334;2024-03-29T10:46:38;98435.75;;;20.48
19061;BMP280;9663;48.996;8.334;2024-03-29T10:49:09;98435.75;;;20.48
19061;BMP280;9663;48.996;8.334;2024-03-29T10:51:41;98421.13;;;20.49
19061;BMP280;9663;48.996;8.334;2024-03-29T10:54:11;98406.75;;;20.57
19061;BMP280;9663;48.996;8.334;2024-03-29T10:56:38;98399.38;;;20.76
19061;BMP280;9663;48.996;8.334;2024-03-29T10:59:34;98395.25;;;20.97
19061;BMP280;9663;48.996;8.334;2024-03-29T11:02:13;98387.78;;;21.26
19061;BMP280;9663;48.996;8.334;2024-03-29T11:04:47;98402.22;;;21.50
19061;BMP280;9663;48.996;8.334;2024-03-29T11:07:20;98400.59;;;21.71
19061;BMP280;9663;48.996;8.334;2024-03-29T11:09:56;98396.69;;;21.87
19061;BMP280;9663;48.996;8.334;2024-03-29T11:12:24;98412.06;;;21.89
19061;BMP280;9663;48.996;8.334;2024-03-29T11:15:02;98406.22;;;21.87
19061;BMP280;9663;48.996;8.334;2024-03-29T11:17:31;98401.84;;;21.87
19061;BMP280;9663;48.996;8.334;2024-03-29T11:19:59;98415.91;;;21.94
19061;BMP280;9663;48.996;8.334;2024-03-29T11:22:28;98411.72;;;22.46
19061;BMP280;9663;48.996;8.334;2024-03-29T11:24:54;98405.06;;;22.33
19061;BMP280;9663;48.996;8.334;2024-03-29T11:27:23;98420.72;;;22.52
19061;BMP280;9663;48.996;8.334;2024-03-29T11:29:52;98419.38;;;22.68
19061;BMP280;9663;48.996;8.334;2024-03-29T11:32:36;98414.09;;;22.70
19061;BMP280;9663;48.996;8.334;2024-03-29T11:35:04;98420.16;;;22.79
19061;BMP280;9663;48.996;8.334;2024-03-29T11:37:31;98416.09;;;22.86
19061;BMP280;9663;48.996;8.334;2024-03-29T11:39:59;98415.28;;;22.97
19061;BMP280;9663;48.996;8.334;2024-03-29T11:42:58;98425.75;;;22.95
19061;BMP280;9663;48.996;8.334;2024-03-29T11:45:25;98422.34;;;23.15
19061;BMP280;9663;48.996;8.334;2024-03-29T11:47:55;98433.56;;;23.25
19061;BMP280;9663;48.996;8.334;2024-03-29T11:50:25;98431.84;;;23.35
19061;BMP280;9663;48.996;8.334;2024-03-29T11:52:51;98432.97;;;23.42
19061;BMP280;9663;48.996;8.334;2024-03-29T11:55:17;98436.22;;;23.44
19061;BMP280;9663;48.996;8.334;2024-03-29T11:57:43;98433.81;;;23.42
19061;BMP280;9663;48.996;8.334;2024-03-29T12:00:09;98425.63;;;23.37
19061;BMP280;9663;48.996;8.334;2024-03-29T12:02:35;98424.91;;;23.35
19061;BMP280;9663;48.996;8.334;2024-03-29T12:07:46;98436.16;;;23.05
19061;BMP280;9663;48.996;8.334;2024-03-29T12:10:12;98440.03;;;22.99
19061;BMP280;9663;48.996;8.334;2024-03-29T12:12:37;98425.22;;;23.42
19061;BMP280;9663;48.996;8.334;2024-03-29T12:15:05;98431.06;;;23.44
19061;BMP280;9663;48.996;8.334;2024-03-29T12:17:31;98436.28;;;23.03
19061;BMP280;9663;48.996;8.334;2024-03-29T12:20:00;98435.31;;;23.04
19061;BMP280;9663;48.996;8.334;2024-03-29T12:22:33;98432.38;;;23.09
19061;BMP280;9663;48.996;8.334;2024-03-29T12:24:59;98442.13;;;23.05
19061;BMP280;9663;48.996;8.334;2024-03-29T12:27:24;98458.97;;;23.00
19061;BMP280;9663;48.996;8.334;2024-03-29T12:29:51;98454.06;;;22.97
19061;BMP280;9663;48.996;8.334;2024-03-29T12:32:20;98449.44;;;23.00
19061;BMP280;9663;48.996;8.334;2024-03-29T12:34:46;98448.56;;;23.11
19061;BMP280;9663;48.996;8.334;2024-03-29T12:37:12;98452.50;;;23.55
19061;BMP280;9663;48.996;8.334;2024-03-29T12:39:41;98462.38;;;23.20
19061;BMP280;9663;48.996;8.334;2024-03-29T12:42:07;98475.94;;;23.13
19061;BMP280;9663;48.996;8.334;2024-03-29T12:44:33;98478.34;;;23.05
19061;BMP280;9663;48.996;8.334;2024-03-29T12:47:00;98483.66;;;22.93
19061;BMP280;9663;48.996;8.334;2024-03-29T12:49:26;98486.41;;;22.80
19061;BMP280;9663;48.996;8.334;2024-03-29T12:51:55;98499.84;;;22.64
19061;BMP280;9663;48.996;8.334;2024-03-29T12:54:21;98483.22;;;22.46
19061;BMP280;9663;48.996;8.334;2024-03-29T12:56:46;98485.13;;;22.33
19061;BMP280;9663;48.996;8.334;2024-03-29T12:59:12;98462.75;;;22.23
19061;BMP280;9663;48.996;8.334;2024-03-29T13:01:38;98488.91;;;22.18
19061;BMP280;9663;48.996;8.334;2024-03-29T13:04:03;98468.56;;;22.14
19061;BMP280;9663;48.996;8.334;2024-03-29T13:06:29;98493.56;;;22.13
19061;BMP280;9663;48.996;8.334;2024-03-29T13:08:55;98480.31;;;22.07
19061;BMP280;9663;48.996;8.334;2024-03-29T13:11:22;98482.56;;;22.00
19061;BMP280;9663;48.996;8.334;2024-03-29T13:13:47;98503.19;;;21.89
19061;BMP280;9663;48.996;8.334;2024-03-29T13:16:13;98496.50;;;21.76
19061;BMP280;9663;48.996;8.334;2024-03-29T13:18:39;98531.56;;;21.68
19061;BMP280;9663;48.996;8.334;2024-03-29T13:21:05;98528.84;;;21.58
19061;BMP280;9663;48.996;8.334;2024-03-29T13:23:30;98507.34;;;21.47
19061;BMP280;9663;48.996;8.334;2024-03-29T13:25:58;98518.84;;;21.43
19061;BMP280;9663;48.996;8.334;2024-03-29T13:28:24;98501.22;;;21.37
19061;BMP280;9663;48.996;8.334;2024-03-29T13:30:50;98490.31;;;21.34
19061;BMP280;9663;48.996;8.334;2024-03-29T13:33:17;98489.66;;;21.42
19061;BMP280;9663;48.996;8.334;2024-03-29T13:35:43;98490.38;;;21.55
19061;BMP280;9663;48.996;8.334;2024-03-29T13:38:09;98489.47;;;21.67
19061;BMP280;9663;48.996;8.334;2024-03-29T13:40:35;98510.34;;;21.75
19061;BMP280;9663;48.996;8.334;2024-03-29T13:43:01;98528.88;;;21.80
19061;BMP280;9663;48.996;8.334;2024-03-29T13:45:27;98530.50;;;21.81
19061;BMP280;9663;48.996;8.334;2024-03-29T13:47:53;98535.44;;;21.84
19061;BMP280;9663;48.996;8.334;2024-03-29T13:50:19;98529.47;;;21.84
19061;BMP280;9663;48.996;8.334;2024-03-29T13:52:46;98528.75;;;21.82
19061;BMP280;9663;48.996;8.334;2024-03-29T13:55:12;98534.63;;;21.84
19061;BMP280;9663;48.996;8.334;2024-03-29T13:57:38;98521.34;;;21.88
19061;BMP280;9663;48.996;8.334;2024-03-29T14:00:04;98526.28;;;21.91
19061;BMP280;9663;48.996;8.334;2024-03-29T14:02:32;98523.72;;;21.91
19061;BMP280;9663;48.996;8.334;2024-03-29T14:04:58;98520.91;;;21.94
19061;BMP280;9663;48.996;8.334;2024-03-29T14:07:24;98509.66;;;21.95
19061;BMP280;9663;48.996;8.334;2024-03-29T14:09:51;98510.34;;;21.97
19061;BMP280;9663;48.996;8.334;2024-03-29T14:12:17;98517.88;;;22.00
19061;BMP280;9663;48.996;8.334;2024-03-29T14:14:44;98512.34;;;22.04
19061;BMP280;9663;48.996;8.334;2024-03-29T14:17:14;98508.59;;;22.08
19061;BMP280;9663;48.996;8.334;2024-03-29T14:19:40;98513.75;;;22.08
19061;BMP280;9663;48.996;8.334;2024-03-29T14:22:06;98511.06;;;22.10
19061;BMP280;9663;48.996;8.334;2024-03-29T14:24:33;98518.44;;;22.14